sensor_id;sensor_type;location;lat;lon;timestamp;pressure;altitude;pressure_sealevel;temperature;humidity
17521;BME280;8878;-33.370;-70.552;2022-10-15T00:02:03;92196.59;;;24.91;30.37
17521;BME280;8878;-33.370;-70.552;2022-10-15T00:04:35;92196.41;;;24.84;30.75
17521;BME280;8878;-33.370;-70.552;2022-10-15T00:07:09;92193.09;;;24.75;31.26
17521;BME280;8878;-33.370;-70.552;2022-10-15T00:09:55;92204.47;;;24.65;30.97
17521;BME280;8878;-33.370;-70.552;2022-10-15T00:12:24;92203.41;;;24.54;30.57
17521;BME280;8878;-33.370;-70.552;2022-10-15T00:14:54;92205.25;;;24.34;31.49
17521;BME280;8878;-33.370;-70.552;2022-10-15T00:17:23;92201.25;;;24.28;31.15
17521;BME280;8878;-33.370;-70.552;2022-10-15T00:19:54;92201.69;;;24.14;31.92
17521;BME280;8878;-33.370;-70.552;2022-10-15T00:22:24;92208.47;;;24.08;31.96
17521;BME280;8878;-33.370;-70.552;2022-10-15T00:24:53;92213.03;;;23.92;32.01
17521;BME280;8878;-33.370;-70.552;2022-10-15T00:27:22;92214.94;;;23.92;32.40
17521;BME280;8878;-33.370;-70.552;2022-10-15T00:29:52;92209.91;;;23.90;33.51
17521;BME280;8878;-33.370;-70.552;2022-10-15T00:32:21;92200.31;;;23.77;33.79
17521;BME280;8878;-33.370;-70.552;2022-10-15T00:34:50;92203.22;;;23.84;33.51
17521;BME280;8878;-33.370;-70.552;2022-10-15T00:37:23;92210.91;;;23.70;33.17
17521;BME280;8878;-33.370;-70.552;2022-10-15T00:39:52;92207.78;;;23.68;33.41
17521;BME280;8878;-33.370;-70.552;2022-10-15T00:42:22;92203.78;;;23.62;33.17
17521;BME280;8878;-33.370;-70.552;2022-10-15T00:44:54;92211.06;;;23.61;33.33
17521;BME280;8878;-33.370;-70.552;2022-10-15T00:47:27;92207.59;;;23.61;33.25
17521;BME280;8878;-33.370;-70.552;2022-10-15T00:50:02;92207.16;;;23.59;32.04
17521;BME280;8878;-33.370;-70.552;2022-10-15T00:52:38;92208.63;;;23.56;32.22
17521;BME280;8878;-33.370;-70.552;2022-10-15T00:55:12;92208.22;;;23.70;31.67
17521;BME280;8878;-33.370;-70.552;2022-10-15T00:57:43;92204.28;;;23.67;31.20
17521;BME280;8878;-33.370;-70.552;2022-10-15T01:00:16;92216.19;;;23.51;31.75
17521;BME280;8878;-33.370;-70.552;2022-10-15T01:02:46;92211.91;;;23.50;31.49
17521;BME280;8878;-33.370;-70.552;2022-10-15T01:05:16;92208.50;;;23.25;30.47
17521;BME280;8878;-33.370;-70.552;2022-10-15T01:07:47;92208.81;;;23.35;30.29
17521;BME280;8878;-33.370;-70.552;2022-10-15T01:10:18;92215.06;;;23.39;31.62
17521;BME280;8878;-33.370;-70.552;2022-10-15T01:12:55;92208.81;;;22.83;31.28
17521;BME280;8878;-33.370;-70.552;2022-10-15T01:15:30;92204.13;;;22.80;32.20
17521;BME280;8878;-33.370;-70.552;2022-10-15T01:18:07;92210.50;;;22.88;31.49
17521;BME280;8878;-33.370;-70.552;2022-10-15T01:21:03;92205.03;;;22.84;32.21
17521;BME280;8878;-33.370;-70.552;2022-10-15T01:27:16;92209.72;;;22.75;34.56
17521;BME280;8878;-33.370;-70.552;2022-10-15T01:33:07;92223.28;;;22.42;35.59
17521;BME280;8878;-33.370;-70.552;2022-10-15T01:35:45;92219.50;;;22.43;35.51
17521;BME280;8878;-33.370;-70.552;2022-10-15T01:38:23;92225.72;;;22.11;33.27
17521;BME280;8878;-33.370;-70.552;2022-10-15T01:40:57;92223.72;;;22.20;35.04
17521;BME280;8878;-33.370;-70.552;2022-10-15T01:43:34;92225.19;;;22.30;33.38
17521;BME280;8878;-33.370;-70.552;2022-10-15T01:46:07;92226.41;;;22.32;34.47
17521;BME280;8878;-33.370;-70.552;2022-10-15T01:48:41;92224.63;;;22.24;36.14
17521;BME280;8878;-33.370;-70.552;2022-10-15T01:51:12;92225.53;;;22.28;34.98
17521;BME280;8878;-33.370;-70.552;2022-10-15T01:53:43;92223.97;;;22.27;35.60
17521;BME280;8878;-33.370;-70.552;2022-10-15T01:56:18;92226.19;;;22.13;36.21
17521;BME280;8878;-33.370;-70.552;2022-10-15T01:58:50;92224.84;;;22.07;35.95
17521;BME280;8878;-33.370;-70.552;2022-10-15T02:01:21;92230.31;;;21.98;36.07
17521;BME280;8878;-33.370;-70.552;2022-10-15T02:03:52;92231.63;;;21.92;36.37
17521;BME280;8878;-33.370;-70.552;2022-10-15T02:06:26;92233.06;;;21.89;35.96
17521;BME280;8878;-33.370;-70.552;2022-10-15T02:09:04;92236.28;;;21.83;35.88
17521;BME280;8878;-33.370;-70.552;2022-10-15T02:11:42;92229.94;;;21.87;36.84
17521;BME280;8878;-33.370;-70.552;2022-10-15T02:14:19;92229.88;;;21.75;36.99
17521;BME280;8878;-33.370;-70.552;2022-10-15T02:16:57;92228.03;;;21.55;37.49
17521;BME280;8878;-33.370;-70.552;2022-10-15T02:19:36;92221.69;;;21.60;37.06
17521;BME280;8878;-33.370;-70.552;2022-10-15T02:22:12;92225.34;;;21.55;36.22
17521;BME280;8878;-33.370;-70.552;2022-10-15T02:24:46;92219.41;;;21.49;37.18
17521;BME280;8878;-33.370;-70.552;2022-10-15T02:27:19;92216.59;;;21.46;35.10
17521;BME280;8878;-33.370;-70.552;2022-10-15T02:29:50;92216.97;;;21.57;35.14
17521;BME280;8878;-33.370;-70.552;2022-10-15T02:32:21;92214.34;;;21.36;34.50
17521;BME280;8878;-33.370;-70.552;2022-10-15T02:34:53;92213.72;;;21.51;34.21
17521;BME280;8878;-33.370;-70.552;2022-10-15T02:37:24;92212.81;;;21.47;35.09
17521;BME280;8878;-33.370;-70.552;2022-10-15T02:39:55;92206.75;;;21.38;34.66
17521;BME280;8878;-33.370;-70.552;2022-10-15T02:42:24;92209.09;;;21.39;34.02
17521;BME280;8878;-33.370;-70.552;2022-10-15T02:44:54;92202.50;;;21.37;34.90
17521;BME280;8878;-33.370;-70.552;2022-10-15T02:47:25;92204.53;;;20.98;35.28
17521;BME280;8878;-33.370;-70.552;2022-10-15T02:49:57;92196.09;;;20.88;34.93
17521;BME280;8878;-33.370;-70.552;2022-10-15T02:52:27;92198.84;;;21.00;34.80
17521;BME280;8878;-33.370;-70.552;2022-10-15T02:54:56;92198.78;;;21.08;34.69
17521;BME280;8878;-33.370;-70.552;2022-10-15T02:57:25;92197.31;;;21.11;34.54
17521;BME280;8878;-33.370;-70.552;2022-10-15T02:59:54;92197.25;;;20.99;34.50
17521;BME280;8878;-33.370;-70.552;2022-10-15T03:02:24;92188.06;;;20.88;35.31
17521;BME280;8878;-33.370;-70.552;2022-10-15T03:04:53;92190.25;;;21.06;34.93
17521;BME280;8878;-33.370;-70.552;2022-10-15T03:07:24;92184.97;;;20.98;34.84
17521;BME280;8878;-33.370;-70.552;2022-10-15T03:09:54;92183.75;;;21.16;35.99
17521;BME280;8878;-33.370;-70.552;2022-10-15T03:12:23;92190.59;;;21.05;34.68
17521;BME280;8878;-33.370;-70.552;2022-10-15T03:14:53;92189.16;;;21.07;35.00
17521;BME280;8878;-33.370;-70.552;2022-10-15T03:17:23;92182.50;;;20.93;34.86
17521;BME280;8878;-33.370;-70.552;2022-10-15T03:19:52;92172.84;;;21.13;36.18
17521;BME280;8878;-33.370;-70.552;2022-10-15T03:22:23;92179.06;;;21.04;34.77
17521;BME280;8878;-33.370;-70.552;2022-10-15T03:24:53;92173.53;;;21.09;35.16
17521;BME280;8878;-33.370;-70.552;2022-10-15T03:27:23;92183.13;;;21.10;36.69
17521;BME280;8878;-33.370;-70.552;2022-10-15T03:29:53;92178.16;;;21.00;36.92
17521;BME280;8878;-33.370;-70.552;2022-10-15T03:32:22;92178.38;;;20.95;36.88
17521;BME280;8878;-33.370;-70.552;2022-10-15T03:34:52;92182.34;;;20.89;36.92
17521;BME280;8878;-33.370;-70.552;2022-10-15T03:37:21;92180.53;;;20.81;36.23
17521;BME280;8878;-33.370;-70.552;2022-10-15T03:39:52;92171.44;;;20.74;36.15
17521;BME280;8878;-33.370;-70.552;2022-10-15T03:42:21;92180.44;;;20.69;35.09
17521;BME280;8878;-33.370;-70.552;2022-10-15T03:44:51;92179.75;;;20.60;35.54
17521;BME280;8878;-33.370;-70.552;2022-10-15T03:47:20;92181.53;;;20.47;36.08
17521;BME280;8878;-33.370;-70.552;2022-10-15T03:49:49;92169.88;;;20.52;35.49
17521;BME280;8878;-33.370;-70.552;2022-10-15T03:52:19;92174.50;;;20.63;35.24
17521;BME280;8878;-33.370;-70.552;2022-10-15T03:54:48;92170.56;;;20.61;37.20
17521;BME280;8878;-33.370;-70.552;2022-10-15T03:57:19;92172.22;;;20.24;36.14
17521;BME280;8878;-33.370;-70.552;2022-10-15T03:59:48;92180.75;;;20.17;35.59
17521;BME280;8878;-33.370;-70.552;2022-10-15T04:02:18;92174.72;;;20.58;36.08
17521;BME280;8878;-33.370;-70.552;2022-10-15T04:04:49;92180.72;;;20.76;34.90
17521;BME280;8878;-33.370;-70.552;2022-10-15T04:07:19;92172.38;;;21.10;35.29
17521;BME280;8878;-33.370;-70.552;2022-10-15T04:09:48;92173.59;;;21.22;34.51
17521;BME280;8878;-33.370;-70.552;2022-10-15T04:12:20;92170.59;;;21.02;34.82
17521;BME280;8878;-33.370;-70.552;2022-10-15T04:14:49;92161.22;;;21.08;35.18
17521;BME280;8878;-33.370;-70.552;2022-10-15T04:17:18;92171.47;;;21.06;35.08
17521;BME280;8878;-33.370;-70.552;2022-10-15T04:19:48;92160.78;;;20.86;36.71
17521;BME280;8878;-33.370;-70.552;2022-10-15T04:22:17;92164.44;;;21.02;36.40
17521;BME280;8878;-33.370;-70.552;2022-10-15T04:24:47;92160.09;;;20.47;37.12
17521;BME280;8878;-33.370;-70.552;2022-10-15T04:27:16;92167.81;;;20.90;36.47
17521;BME280;8878;-33.370;-70.552;2022-10-15T04:29:48;92164.88;;;20.83;35.76
17521;BME280;8878;-33.370;-70.552;2022-10-15T04:32:18;92164.81;;;20.92;35.78
17521;BME280;8878;-33.370;-70.552;2022-10-15T04:35:20;92156.47;;;20.52;36.64
17521;BME280;8878;-33.370;-70.552;2022-10-15T04:37:50;92154.16;;;20.62;36.34
17521;BME280;8878;-33.370;-70.552;2022-10-15T04:40:19;92152.00;;;20.56;36.60
17521;BME280;8878;-33.370;-70.552;2022-10-15T04:42:48;92154.56;;;20.52;36.61
17521;BME280;8878;-33.370;-70.552;2022-10-15T04:45:20;92152.16;;;20.39;37.16
17521;BME280;8878;-33.370;-70.552;2022-10-15T04:47:49;92153.59;;;20.27;37.26
17521;BME280;8878;-33.370;-70.552;2022-10-15T04:50:18;92146.03;;;20.00;38.24
17521;BME280;8878;-33.370;-70.552;2022-10-15T04:52:48;92142.56;;;20.00;37.15
17521;BME280;8878;-33.370;-70.552;2022-10-15T04:55:17;92142.06;;;20.36;36.60
17521;BME280;8878;-33.370;-70.552;2022-10-15T04:57:47;92137.50;;;20.57;36.59
17521;BME280;8878;-33.370;-70.552;2022-10-15T05:00:18;92134.75;;;20.15;37.85
17521;BME280;8878;-33.370;-70.552;2022-10-15T05:02:47;92133.16;;;19.93;37.88
17521;BME280;8878;-33.370;-70.552;2022-10-15T05:05:17;92131.19;;;19.73;38.25
17521;BME280;8878;-33.370;-70.552;2022-10-15T05:07:46;92132.41;;;19.84;38.38
17521;BME280;8878;-33.370;-70.552;2022-10-15T05:10:15;92130.72;;;19.71;38.33
17521;BME280;8878;-33.370;-70.552;2022-10-15T05:12:45;92131.31;;;19.77;37.55
17521;BME280;8878;-33.370;-70.552;2022-10-15T05:15:14;92127.25;;;19.71;37.34
17521;BME280;8878;-33.370;-70.552;2022-10-15T05:17:46;92129.75;;;19.76;37.06
17521;BME280;8878;-33.370;-70.552;2022-10-15T05:20:15;92124.53;;;19.88;37.67
17521;BME280;8878;-33.370;-70.552;2022-10-15T05:22:45;92124.91;;;19.69;38.63
17521;BME280;8878;-33.370;-70.552;2022-10-15T05:25:14;92124.31;;;19.64;38.05
17521;BME280;8878;-33.370;-70.552;2022-10-15T05:27:43;92127.28;;;19.62;37.80
17521;BME280;8878;-33.370;-70.552;2022-10-15T05:30:13;92124.47;;;19.67;38.12
17521;BME280;8878;-33.370;-70.552;2022-10-15T05:32:42;92120.44;;;19.35;37.88
17521;BME280;8878;-33.370;-70.552;2022-10-15T05:35:14;92116.97;;;19.43;36.46
17521;BME280;8878;-33.370;-70.552;2022-10-15T05:37:44;92111.28;;;19.53;36.24
17521;BME280;8878;-33.370;-70.552;2022-10-15T05:40:13;92112.53;;;19.56;35.70
17521;BME280;8878;-33.370;-70.552;2022-10-15T05:42:43;92106.31;;;19.73;36.30
17521;BME280;8878;-33.370;-70.552;2022-10-15T05:45:13;92101.06;;;19.85;37.03
17521;BME280;8878;-33.370;-70.552;2022-10-15T05:47:43;92094.91;;;19.84;37.60
17521;BME280;8878;-33.370;-70.552;2022-10-15T05:50:14;92102.16;;;19.84;37.53
17521;BME280;8878;-33.370;-70.552;2022-10-15T05:52:43;92097.06;;;19.62;37.67
17521;BME280;8878;-33.370;-70.552;2022-10-15T05:55:13;92086.09;;;19.54;36.99
17521;BME280;8878;-33.370;-70.552;2022-10-15T05:57:43;92093.19;;;19.42;36.65
17521;BME280;8878;-33.370;-70.552;2022-10-15T06:00:14;92090.91;;;19.23;37.50
17521;BME280;8878;-33.370;-70.552;2022-10-15T06:02:43;92091.31;;;19.34;36.74
17521;BME280;8878;-33.370;-70.552;2022-10-15T06:05:14;92093.06;;;19.38;37.01
17521;BME280;8878;-33.370;-70.552;2022-10-15T06:07:43;92085.19;;;19.33;36.00
17521;BME280;8878;-33.370;-70.552;2022-10-15T06:10:13;92091.81;;;19.27;36.10
17521;BME280;8878;-33.370;-70.552;2022-10-15T06:12:48;92091.66;;;19.32;36.69
17521;BME280;8878;-33.370;-70.552;2022-10-15T06:15:18;92082.31;;;19.55;36.49
17521;BME280;8878;-33.370;-70.552;2022-10-15T06:17:47;92079.00;;;19.59;36.07
17521;BME280;8878;-33.370;-70.552;2022-10-15T06:20:21;92081.69;;;19.41;35.65
17521;BME280;8878;-33.370;-70.552;2022-10-15T06:22:50;92082.97;;;19.52;36.09
17521;BME280;8878;-33.370;-70.552;2022-10-15T06:25:19;92085.09;;;19.68;38.81
17521;BME280;8878;-33.370;-70.552;2022-10-15T06:27:49;92081.50;;;19.55;37.98
17521;BME280;8878;-33.370;-70.552;2022-10-15T06:30:18;92079.84;;;19.33;36.75
17521;BME280;8878;-33.370;-70.552;2022-10-15T06:32:48;92080.13;;;19.40;36.31
17521;BME280;8878;-33.370;-70.552;2022-10-15T06:35:20;92074.75;;;19.58;36.62
17521;BME280;8878;-33.370;-70.552;2022-10-15T06:37:50;92077.22;;;19.63;37.06
17521;BME280;8878;-33.370;-70.552;2022-10-15T06:40:19;92073.19;;;19.57;37.34
17521;BME280;8878;-33.370;-70.552;2022-10-15T06:42:49;92078.84;;;19.55;37.96
17521;BME280;8878;-33.370;-70.552;2022-10-15T06:45:18;92082.97;;;19.44;35.16
17521;BME280;8878;-33.370;-70.552;2022-10-15T06:47:48;92078.69;;;19.60;35.78
17521;BME280;8878;-33.370;-70.552;2022-10-15T06:50:17;92082.63;;;19.54;37.69
17521;BME280;8878;-33.370;-70.552;2022-10-15T06:52:49;92084.81;;;19.61;38.57
17521;BME280;8878;-33.370;-70.552;2022-10-15T06:55:18;92085.63;;;19.44;38.51
17521;BME280;8878;-33.370;-70.552;2022-10-15T06:57:48;92089.03;;;19.15;36.98
17521;BME280;8878;-33.370;-70.552;2022-10-15T07:00:18;92082.50;;;19.33;36.72
17521;BME280;8878;-33.370;-70.552;2022-10-15T07:02:47;92093.06;;;19.38;37.58
17521;BME280;8878;-33.370;-70.552;2022-10-15T07:05:16;92086.94;;;19.38;38.93
17521;BME280;8878;-33.370;-70.552;2022-10-15T07:07:53;92086.19;;;19.20;38.97
17521;BME280;8878;-33.370;-70.552;2022-10-15T07:10:23;92090.31;;;19.09;37.90
17521;BME280;8878;-33.370;-70.552;2022-10-15T07:12:53;92086.88;;;19.00;37.13
17521;BME280;8878;-33.370;-70.552;2022-10-15T07:15:22;92096.16;;;19.02;35.46
17521;BME280;8878;-33.370;-70.552;2022-10-15T07:17:53;92088.63;;;18.96;35.53
17521;BME280;8878;-33.370;-70.552;2022-10-15T07:20:27;92090.00;;;19.10;37.14
17521;BME280;8878;-33.370;-70.552;2022-10-15T07:22:59;92088.72;;;19.16;38.64
17521;BME280;8878;-33.370;-70.552;2022-10-15T07:25:29;92078.84;;;19.08;38.37
17521;BME280;8878;-33.370;-70.552;2022-10-15T07:27:59;92093.97;;;18.96;38.63
17521;BME280;8878;-33.370;-70.552;2022-10-15T07:30:28;92093.81;;;18.84;37.76
17521;BME280;8878;-33.370;-70.552;2022-10-15T07:32:58;92089.00;;;18.60;37.88
17521;BME280;8878;-33.370;-70.552;2022-10-15T07:35:28;92088.81;;;18.73;37.42
17521;BME280;8878;-33.370;-70.552;2022-10-15T07:38:01;92082.34;;;18.83;37.99
17521;BME280;8878;-33.370;-70.552;2022-10-15T07:40:31;92095.38;;;18.85;38.39
17521;BME280;8878;-33.370;-70.552;2022-10-15T07:43:00;92083.41;;;18.91;38.27
17521;BME280;8878;-33.370;-70.552;2022-10-15T07:45:29;92088.31;;;18.89;38.25
17521;BME280;8878;-33.370;-70.552;2022-10-15T07:47:59;92085.31;;;18.90;37.58
17521;BME280;8878;-33.370;-70.552;2022-10-15T07:50:28;92089.72;;;18.95;37.94
17521;BME280;8878;-33.370;-70.552;2022-10-15T07:52:58;92082.63;;;18.90;37.30
17521;BME280;8878;-33.370;-70.552;2022-10-15T07:55:29;92079.84;;;18.87;37.34
17521;BME280;8878;-33.370;-70.552;2022-10-15T07:57:58;92083.59;;;18.94;36.53
17521;BME280;8878;-33.370;-70.552;2022-10-15T08:00:27;92086.63;;;18.75;36.97
17521;BME280;8878;-33.370;-70.552;2022-10-15T08:02:57;92083.78;;;18.81;37.91
17521;BME280;8878;-33.370;-70.552;2022-10-15T08:05:26;92083.31;;;18.70;38.40
17521;BME280;8878;-33.370;-70.552;2022-10-15T08:07:56;92086.63;;;18.58;38.42
17521;BME280;8878;-33.370;-70.552;2022-10-15T08:10:27;92078.88;;;18.48;39.69
17521;BME280;8878;-33.370;-70.552;2022-10-15T08:12:56;92081.41;;;18.53;39.28
17521;BME280;8878;-33.370;-70.552;2022-10-15T08:15:25;92083.13;;;18.49;39.33
17521;BME280;8878;-33.370;-70.552;2022-10-15T08:17:55;92083.31;;;18.18;39.08
17521;BME280;8878;-33.370;-70.552;2022-10-15T08:20:24;92074.19;;;18.02;40.32
17521;BME280;8878;-33.370;-70.552;2022-10-15T08:22:53;92073.06;;;18.12;39.75
17521;BME280;8878;-33.370;-70.552;2022-10-15T08:25:23;92078.59;;;18.15;41.21
17521;BME280;8878;-33.370;-70.552;2022-10-15T08:27:54;92080.94;;;18.34;41.25
17521;BME280;8878;-33.370;-70.552;2022-10-15T08:30:23;92075.28;;;18.27;39.85
17521;BME280;8878;-33.370;-70.552;2022-10-15T08:32:53;92077.63;;;18.28;39.59
17521;BME280;8878;-33.370;-70.552;2022-10-15T08:35:22;92079.06;;;18.43;38.28
17521;BME280;8878;-33.370;-70.552;2022-10-15T08:37:53;92083.00;;;18.37;40.33
17521;BME280;8878;-33.370;-70.552;2022-10-15T08:40:23;92081.41;;;18.36;40.79
17521;BME280;8878;-33.370;-70.552;2022-10-15T08:42:55;92079.06;;;18.26;41.17
17521;BME280;8878;-33.370;-70.552;2022-10-15T08:45:27;92082.06;;;18.24;41.15
17521;BME280;8878;-33.370;-70.552;2022-10-15T08:48:00;92078.75;;;18.19;41.00
17521;BME280;8878;-33.370;-70.552;2022-10-15T08:50:37;92083.44;;;18.13;40.24
17521;BME280;8878;-33.370;-70.552;2022-10-15T08:53:13;92078.88;;;18.05;41.80
17521;BME280;8878;-33.370;-70.552;2022-10-15T08:55:47;92094.44;;;18.12;40.88
17521;BME280;8878;-33.370;-70.552;2022-10-15T08:58:22;92092.09;;;18.19;40.94
17521;BME280;8878;-33.370;-70.552;2022-10-15T09:00:55;92095.69;;;18.14;41.04
17521;BME280;8878;-33.370;-70.552;2022-10-15T09:03:35;92093.50;;;18.08;41.44
17521;BME280;8878;-33.370;-70.552;2022-10-15T09:06:13;92093.63;;;17.94;40.67
17521;BME280;8878;-33.370;-70.552;2022-10-15T09:08:50;92096.00;;;17.95;40.11
17521;BME280;8878;-33.370;-70.552;2022-10-15T09:11:29;92098.81;;;17.99;40.75
17521;BME280;8878;-33.370;-70.552;2022-10-15T09:14:09;92096.94;;;17.99;41.07
17521;BME280;8878;-33.370;-70.552;2022-10-15T09:16:41;92099.91;;;17.89;41.26
17521;BME280;8878;-33.370;-70.552;2022-10-15T09:19:14;92093.66;;;18.03;39.63
17521;BME280;8878;-33.370;-70.552;2022-10-15T09:21:47;92107.00;;;18.03;38.73
17521;BME280;8878;-33.370;-70.552;2022-10-15T09:24:20;92106.84;;;18.16;37.59
17521;BME280;8878;-33.370;-70.552;2022-10-15T09:27:03;92107.66;;;18.17;39.51
17521;BME280;8878;-33.370;-70.552;2022-10-15T09:29:42;92112.34;;;18.11;40.40
17521;BME280;8878;-33.370;-70.552;2022-10-15T09:32:16;92115.91;;;17.98;40.64
17521;BME280;8878;-33.370;-70.552;2022-10-15T09:34:53;92114.47;;;17.83;41.37
17521;BME280;8878;-33.370;-70.552;2022-10-15T09:37:28;92118.44;;;17.94;40.58
17521;BME280;8878;-33.370;-70.552;2022-10-15T09:40:14;92116.25;;;17.96;38.69
17521;BME280;8878;-33.370;-70.552;2022-10-15T09:42:49;92121.59;;;17.96;38.57
17521;BME280;8878;-33.370;-70.552;2022-10-15T09:45:22;92119.88;;;18.00;38.56
17521;BME280;8878;-33.370;-70.552;2022-10-15T09:47:55;92111.84;;;18.00;40.06
17521;BME280;8878;-33.370;-70.552;2022-10-15T09:50:30;92121.50;;;17.71;41.03
17521;BME280;8878;-33.370;-70.552;2022-10-15T09:53:12;92119.63;;;17.71;40.84
17521;BME280;8878;-33.370;-70.552;2022-10-15T09:55:49;92128.28;;;17.68;40.00
17521;BME280;8878;-33.370;-70.552;2022-10-15T09:58:22;92121.69;;;17.74;39.67
17521;BME280;8878;-33.370;-70.552;2022-10-15T10:01:00;92118.88;;;17.79;39.57
17521;BME280;8878;-33.370;-70.552;2022-10-15T10:03:31;92124.06;;;17.84;40.55
17521;BME280;8878;-33.370;-70.552;2022-10-15T10:06:03;92119.34;;;17.81;39.88
17521;BME280;8878;-33.370;-70.552;2022-10-15T10:08:36;92128.59;;;17.75;38.76
17521;BME280;8878;-33.370;-70.552;2022-10-15T10:11:07;92125.94;;;17.84;39.42
17521;BME280;8878;-33.370;-70.552;2022-10-15T10:13:42;92126.59;;;17.89;40.26
17521;BME280;8878;-33.370;-70.552;2022-10-15T10:16:16;92133.19;;;17.92;39.89
17521;BME280;8878;-33.370;-70.552;2022-10-15T10:19:02;92139.78;;;17.55;39.28
17521;BME280;8878;-33.370;-70.552;2022-10-15T10:21:33;92136.44;;;17.72;39.56
17521;BME280;8878;-33.370;-70.552;2022-10-15T10:24:20;92141.13;;;17.66;39.53
17521;BME280;8878;-33.370;-70.552;2022-10-15T10:26:54;92144.72;;;17.62;40.10
17521;BME280;8878;-33.370;-70.552;2022-10-15T10:29:25;92154.50;;;17.75;39.95
17521;BME280;8878;-33.370;-70.552;2022-10-15T10:31:57;92162.59;;;17.61;39.66
17521;BME280;8878;-33.370;-70.552;2022-10-15T10:34:27;92160.88;;;17.65;38.81
17521;BME280;8878;-33.370;-70.552;2022-10-15T10:36:57;92155.75;;;17.77;38.29
17521;BME280;8878;-33.370;-70.552;2022-10-15T10:39:31;92152.63;;;17.84;38.67
17521;BME280;8878;-33.370;-70.552;2022-10-15T10:42:04;92152.00;;;17.78;39.04
17521;BME280;8878;-33.370;-70.552;2022-10-15T10:44:36;92151.88;;;17.92;39.89
17521;BME280;8878;-33.370;-70.552;2022-10-15T10:47:13;92154.50;;;17.83;38.92
17521;BME280;8878;-33.370;-70.552;2022-10-15T10:49:44;92159.50;;;17.76;37.73
17521;BME280;8878;-33.370;-70.552;2022-10-15T10:52:22;92154.31;;;17.71;37.20
17521;BME280;8878;-33.370;-70.552;2022-10-15T10:54:59;92164.84;;;17.76;36.51
17521;BME280;8878;-33.370;-70.552;2022-10-15T10:57:39;92161.66;;;18.14;35.73
17521;BME280;8878;-33.370;-70.552;2022-10-15T11:00:14;92159.03;;;18.48;35.74
17521;BME280;8878;-33.370;-70.552;2022-10-15T11:02:45;92165.53;;;18.64;35.60
17521;BME280;8878;-33.370;-70.552;2022-10-15T11:05:16;92167.25;;;18.77;35.29
17521;BME280;8878;-33.370;-70.552;2022-10-15T11:07:53;92172.13;;;18.84;34.51
17521;BME280;8878;-33.370;-70.552;2022-10-15T11:10:28;92165.19;;;18.92;34.72
17521;BME280;8878;-33.370;-70.552;2022-10-15T11:13:22;92172.13;;;19.10;35.08
17521;BME280;8878;-33.370;-70.552;2022-10-15T11:15:57;92178.84;;;19.25;35.33
17521;BME280;8878;-33.370;-70.552;2022-10-15T11:18:46;92186.41;;;19.31;35.92
17521;BME280;8878;-33.370;-70.552;2022-10-15T11:21:24;92187.50;;;19.30;35.46
17521;BME280;8878;-33.370;-70.552;2022-10-15T11:24:04;92185.75;;;19.34;34.52
17521;BME280;8878;-33.370;-70.552;2022-10-15T11:26:58;92185.56;;;19.48;34.66
17521;BME280;8878;-33.370;-70.552;2022-10-15T11:29:37;92189.47;;;19.68;35.64
17521;BME280;8878;-33.370;-70.552;2022-10-15T11:32:20;92194.84;;;19.68;34.67
17521;BME280;8878;-33.370;-70.552;2022-10-15T11:35:07;92192.56;;;19.78;33.92
17521;BME280;8878;-33.370;-70.552;2022-10-15T11:37:49;92193.03;;;20.18;33.06
17521;BME280;8878;-33.370;-70.552;2022-10-15T11:40:28;92192.25;;;20.47;31.98
17521;BME280;8878;-33.370;-70.552;2022-10-15T11:43:04;92194.47;;;20.75;31.88
17521;BME280;8878;-33.370;-70.552;2022-10-15T11:46:04;92191.38;;;20.64;31.74
17521;BME280;8878;-33.370;-70.552;2022-10-15T11:48:41;92202.47;;;20.54;31.15
17521;BME280;8878;-33.370;-70.552;2022-10-15T11:51:23;92209.16;;;20.68;31.29
17521;BME280;8878;-33.370;-70.552;2022-10-15T11:54:12;92213.81;;;21.01;31.05
17521;BME280;8878;-33.370;-70.552;2022-10-15T11:56:47;92220.03;;;20.93;31.47
17521;BME280;8878;-33.370;-70.552;2022-10-15T11:59:26;92220.81;;;20.93;32.01
17521;BME280;8878;-33.370;-70.552;2022-10-15T12:02:02;92212.78;;;20.93;32.01
17521;BME280;8878;-33.370;-70.552;2022-10-15T12:04:38;92222.41;;;21.36;31.83
17521;BME280;8878;-33.370;-70.552;2022-10-15T12:07:15;92220.81;;;21.35;31.79
17521;BME280;8878;-33.370;-70.552;2022-10-15T12:09:49;92229.72;;;21.27;32.37
17521;BME280;8878;-33.370;-70.552;2022-10-15T12:12:29;92225.28;;;21.10;32.88
17521;BME280;8878;-33.370;-70.552;2022-10-15T12:15:13;92234.28;;;21.05;32.82
17521;BME280;8878;-33.370;-70.552;2022-10-15T12:17:51;92235.44;;;21.58;32.51
17521;BME280;8878;-33.370;-70.552;2022-10-15T12:20:25;92235.72;;;21.77;31.63
17521;BME280;8878;-33.370;-70.552;2022-10-15T12:22:58;92236.41;;;21.21;29.10
17521;BME280;8878;-33.370;-70.552;2022-10-15T12:25:42;92235.16;;;21.72;29.91
17521;BME280;8878;-33.370;-70.552;2022-10-15T12:28:16;92235.63;;;21.53;30.34
17521;BME280;8878;-33.370;-70.552;2022-10-15T12:30:59;92239.50;;;21.64;30.62
17521;BME280;8878;-33.370;-70.552;2022-10-15T12:33:35;92234.59;;;21.78;29.56
17521;BME280;8878;-33.370;-70.552;2022-10-15T12:36:07;92239.97;;;21.66;28.54
17521;BME280;8878;-33.370;-70.552;2022-10-15T12:38:56;92235.72;;;22.35;28.10
17521;BME280;8878;-33.370;-70.552;2022-10-15T12:41:38;92238.97;;;22.64;27.97
17521;BME280;8878;-33.370;-70.552;2022-10-15T12:44:17;92230.78;;;22.61;26.79
17521;BME280;8878;-33.370;-70.552;2022-10-15T12:46:48;92232.91;;;22.67;27.63
17521;BME280;8878;-33.370;-70.552;2022-10-15T12:49:45;92235.38;;;22.73;26.44
17521;BME280;8878;-33.370;-70.552;2022-10-15T12:55:32;92235.16;;;22.90;27.14
17521;BME280;8878;-33.370;-70.552;2022-10-15T13:00:50;92230.16;;;23.16;27.57
17521;BME280;8878;-33.370;-70.552;2022-10-15T13:03:28;92238.31;;;22.80;27.75
17521;BME280;8878;-33.370;-70.552;2022-10-15T13:06:32;92240.66;;;22.93;27.68
17521;BME280;8878;-33.370;-70.552;2022-10-15T13:09:16;92248.66;;;23.30;27.34
17521;BME280;8878;-33.370;-70.552;2022-10-15T13:11:53;92249.47;;;23.58;27.37
17521;BME280;8878;-33.370;-70.552;2022-10-15T13:14:28;92243.97;;;23.55;28.22
17521;BME280;8878;-33.370;-70.552;2022-10-15T13:17:00;92245.91;;;23.42;28.16
17521;BME280;8878;-33.370;-70.552;2022-10-15T13:19:33;92249.69;;;23.53;28.03
17521;BME280;8878;-33.370;-70.552;2022-10-15T13:22:04;92252.09;;;23.30;27.36
17521;BME280;8878;-33.370;-70.552;2022-10-15T13:24:40;92260.72;;;23.36;26.42